Time;durP1;ratioP1;P1;durP2;ratioP2;P2;SDS_P1;SDS_P2;PMS_P1;PMS_P2;Temp;Humidity;BMP_temperature;BMP_pressure;BME280_temperature;BME280_humidity;BME280_pressure;Samples;Min_cycle;Max_cycle;Signal;HPM_P1;HPM_P2
2022/11/30 00:00:20;;;;;;;20.95;10.55;;;22.00;58.50;;;;;;5071220;28;20032;-70
2022/11/30 00:02:48;;;;;;;17.63;8.88;;;22.00;58.30;;;;;;5071223;28;20044;-71
2022/11/30 00:05:14;;;;;;;19.90;8.63;;;22.10;58.30;;;;;;5053423;28;20032;-69
2022/11/30 00:07:40;;;;;;;19.02;9.00;;;22.00;58.20;;;;;;5070866;28;20040;-70
2022/11/30 00:10:07;;;;;;;16.65;8.68;;;22.00;58.20;;;;;;5071253;28;20055;-70
2022/11/30 00:12:33;;;;;;;17.88;8.45;;;21.90;58.30;;;;;;5071017;28;20024;-70
2022/11/30 00:14:59;;;;;;;17.75;8.32;;;21.80;58.30;;;;;;5071156;28;20070;-69
2022/11/30 00:17:25;;;;;;;21.05;9.13;;;21.90;58.30;;;;;;5070796;28;20680;-70
2022/11/30 00:19:51;;;;;;;15.95;8.65;;;21.80;58.20;;;;;;5071117;28;20035;-70
2022/11/30 00:22:17;;;;;;;19.70;9.60;;;21.80;58.10;;;;;;5019142;28;20052;-70
2022/11/30 00:24:42;;;;;;;16.15;9.10;;;21.80;58.20;;;;;;5070872;28;20093;-70
2022/11/30 00:27:08;;;;;;;16.13;8.60;;;21.90;58.30;;;;;;5070803;28;20021;-70
2022/11/30 00:29:34;;;;;;;16.27;8.38;;;21.80;58.10;;;;;;5070760;28;20043;-70
2022/11/30 00:32:00;;;;;;;16.40;9.20;;;21.80;58.00;;;;;;5070863;28;20078;-70
2022/11/30 00:34:26;;;;;;;24.10;9.85;;;21.90;58.10;;;;;;5070805;28;20040;-70
2022/11/30 00:36:52;;;;;;;20.05;9.18;;;21.80;57.90;;;;;;5070668;28;20090;-70
2022/11/30 00:39:18;;;;;;;14.55;9.23;;;21.90;58.10;;;;;;5070807;28;20033;-70
2022/11/30 00:41:44;;;;;;;19.15;9.25;;;22.00;58.00;;;;;;5018649;28;20083;-69
2022/11/30 00:44:10;;;;;;;19.73;9.75;;;21.90;58.00;;;;;;5070702;28;20037;-70
2022/11/30 00:46:36;;;;;;;19.23;9.15;;;21.90;57.90;;;;;;5070727;28;20040;-70
2022/11/30 00:49:02;;;;;;;21.30;9.55;;;21.90;57.70;;;;;;5070893;28;20028;-70
2022/11/30 00:51:28;;;;;;;17.63;9.05;;;21.90;57.60;;;;;;5070652;28;20043;-69
2022/11/30 00:53:54;;;;;;;14.85;7.97;;;21.80;57.50;;;;;;5070508;28;20462;-70
2022/11/30 00:56:20;;;;;;;12.63;7.38;;;21.90;57.70;;;;;;5067447;28;20034;-70
2022/11/30 00:58:46;;;;;;;15.18;8.60;;;21.80;57.70;;;;;;5018405;28;20094;-70
2022/11/30 01:01:12;;;;;;;17.50;9.00;;;21.80;57.60;;;;;;5070392;28;20040;-70
2022/11/30 01:03:38;;;;;;;16.02;8.02;;;21.60;57.60;;;;;;5036315;28;20044;-69
2022/11/30 01:06:06;;;;;;;12.63;7.32;;;21.60;57.60;;;;;;5061962;28;20032;-70
2022/11/30 01:08:33;;;;;;;14.70;8.18;;;21.60;57.60;;;;;;5036682;28;20041;-70
2022/11/30 01:11:11;;;;;;;15.27;7.60;;;21.60;57.60;;;;;;5054498;28;20114;-70
2022/11/30 01:13:37;;;;;;;15.57;7.97;;;21.70;57.80;;;;;;5054305;28;20032;-69
2022/11/30 01:16:14;;;;;;;14.35;8.35;;;21.60;57.70;;;;;;5035566;28;20426;-70
2022/11/30 01:18:41;;;;;;;14.38;7.68;;;21.70;57.60;;;;;;5035122;28;20163;-70
2022/11/30 01:21:09;;;;;;;16.73;8.48;;;21.60;57.50;;;;;;5054427;28;20036;-69
2022/11/30 01:23:35;;;;;;;16.42;8.18;;;21.70;57.50;;;;;;5054157;28;20063;-70
2022/11/30 01:26:01;;;;;;;12.45;6.75;;;21.70;57.40;;;;;;5054110;28;20032;-69
2022/11/30 01:28:28;;;;;;;13.88;8.07;;;21.60;57.40;;;;;;5053970;28;20021;-69
2022/11/30 01:31:04;;;;;;;15.77;7.70;;;21.60;57.20;;;;;;5054300;28;20044;-70
2022/11/30 01:33:32;;;;;;;13.95;6.82;;;21.60;57.20;;;;;;5053907;28;20068;-70
2022/11/30 01:36:11;;;;;;;16.38;8.45;;;21.70;57.20;;;;;;5053985;28;20498;-69
2022/11/30 01:38:45;;;;;;;13.10;8.05;;;21.70;57.00;;;;;;5053780;28;20029;-70
2022/11/30 01:41:13;;;;;;;16.45;7.10;;;21.70;57.00;;;;;;5053653;28;20566;-70
2022/11/30 01:43:41;;;;;;;14.60;8.48;;;21.60;57.00;;;;;;5052732;28;20077;-69
2022/11/30 01:46:31;;;;;;;13.20;7.57;;;21.60;57.00;;;;;;5010712;28;20046;-70
2022/11/30 01:49:03;;;;;;;15.80;7.70;;;21.60;57.10;;;;;;5010489;28;20033;-67
2022/11/30 01:51:34;;;;;;;16.38;7.60;;;21.60;56.80;;;;;;5011328;28;20096;-70
2022/11/30 01:54:02;;;;;;;11.35;7.45;;;21.50;56.80;;;;;;4994935;28;20408;-69
2022/11/30 01:56:28;;;;;;;12.93;6.55;;;21.50;56.80;;;;;;5011387;28;20054;-70
2022/11/30 01:58:54;;;;;;;11.65;7.63;;;21.50;56.80;;;;;;5011229;28;20041;-69
2022/11/30 02:01:20;;;;;;;15.93;8.13;;;21.50;56.80;;;;;;5011308;28;20088;-70
2022/11/30 02:03:59;;;;;;;11.32;7.30;;;21.60;56.80;;;;;;4994686;28;20085;-70
2022/11/30 02:06:25;;;;;;;13.50;7.30;;;21.50;56.80;;;;;;5011145;28;20057;-69
2022/11/30 02:08:52;;;;;;;14.68;7.43;;;21.60;56.80;;;;;;5015755;28;20075;-70
2022/11/30 02:11:18;;;;;;;14.52;8.18;;;21.60;56.70;;;;;;5050593;28;20453;-70
2022/11/30 02:14:10;;;;;;;12.48;7.40;;;21.60;56.60;;;;;;5050385;28;20045;-70
2022/11/30 02:17:03;;;;;;;12.90;8.10;;;21.60;56.60;;;;;;5055780;28;20119;-70
2022/11/30 02:19:51;;;;;;;13.15;6.95;;;21.70;56.60;;;;;;5072963;28;20465;-70
2022/11/30 02:22:29;;;;;;;11.52;7.00;;;21.70;56.60;;;;;;5073023;28;20042;-70
2022/11/30 02:25:07;;;;;;;11.10;7.38;;;21.50;56.50;;;;;;5073350;28;20029;-70
2022/11/30 02:27:44;;;;;;;12.55;7.63;;;21.50;56.50;;;;;;5072811;28;20113;-69
2022/11/30 02:30:18;;;;;;;12.45;7.05;;;21.50;56.50;;;;;;5072972;28;20034;-70
2022/11/30 02:32:52;;;;;;;12.60;7.20;;;21.40;56.50;;;;;;5072945;28;20032;-70
2022/11/30 02:35:24;;;;;;;9.45;6.78;;;21.50;56.60;;;;;;5073000;28;20024;-69
2022/11/30 02:37:52;;;;;;;11.68;7.03;;;21.50;56.60;;;;;;5072750;28;20040;-70
2022/11/30 02:40:19;;;;;;;12.55;6.05;;;21.30;56.50;;;;;;5072751;28;20501;-70
2022/11/30 02:42:48;;;;;;;9.50;6.40;;;21.50;56.50;;;;;;5072493;28;20040;-70
2022/11/30 02:45:14;;;;;;;10.52;6.18;;;21.30;56.50;;;;;;5072614;28;20037;-69
2022/11/30 02:48:13;;;;;;;11.40;6.55;;;21.40;56.40;;;;;;5072569;28;20363;-69
2022/11/30 02:50:43;;;;;;;14.23;6.50;;;21.40;56.20;;;;;;5072518;28;20370;-70
2022/11/30 02:53:09;;;;;;;10.10;6.22;;;21.50;56.20;;;;;;5072456;28;20042;-70
2022/11/30 02:55:35;;;;;;;9.32;5.28;;;21.40;56.20;;;;;;5072218;28;20032;-70
2022/11/30 02:58:01;;;;;;;7.82;5.20;;;21.50;56.20;;;;;;5072335;28;20090;-70
2022/11/30 03:00:27;;;;;;;12.07;6.07;;;21.50;56.20;;;;;;5074923;28;20057;-70
2022/11/30 03:02:54;;;;;;;11.45;6.20;;;21.40;56.10;;;;;;5072265;28;20028;-70
2022/11/30 03:05:20;;;;;;;9.38;6.07;;;21.50;56.10;;;;;;5070892;28;20040;-70
2022/11/30 03:07:46;;;;;;;9.20;5.65;;;21.50;56.10;;;;;;5071788;28;20036;-70
2022/11/30 03:10:12;;;;;;;7.75;5.35;;;21.40;55.90;;;;;;5075787;28;20123;-69
2022/11/30 03:12:38;;;;;;;10.07;5.22;;;21.30;56.00;;;;;;5071168;28;20040;-70
2022/11/30 03:15:05;;;;;;;10.07;5.57;;;21.30;55.90;;;;;;5071278;28;20028;-70
2022/11/30 03:17:31;;;;;;;9.32;5.65;;;21.40;55.90;;;;;;5071289;28;20044;-70
2022/11/30 03:19:57;;;;;;;8.77;5.47;;;21.40;55.90;;;;;;5071112;28;20032;-68
2022/11/30 03:22:23;;;;;;;9.23;5.50;;;21.30;56.00;;;;;;5071636;28;20052;-70
2022/11/30 03:24:49;;;;;;;8.15;5.35;;;21.30;56.00;;;;;;5071968;28;20060;-70
2022/11/30 03:27:15;;;;;;;8.02;5.28;;;21.30;56.10;;;;;;5071777;28;20075;-70
2022/11/30 03:29:41;;;;;;;7.65;4.90;;;21.30;56.00;;;;;;5071658;28;20728;-69
2022/11/30 03:32:07;;;;;;;9.30;4.93;;;21.30;56.00;;;;;;5071904;28;20086;-70
2022/11/30 03:34:33;;;;;;;9.40;5.75;;;21.20;55.80;;;;;;5071407;28;20394;-69
2022/11/30 03:36:59;;;;;;;8.00;5.18;;;21.40;55.80;;;;;;5071566;28;20024;-70
2022/11/30 03:39:26;;;;;;;7.63;5.18;;;21.30;55.70;;;;;;5071254;28;20119;-70
2022/11/30 03:41:52;;;;;;;8.13;5.43;;;21.50;55.80;;;;;;5071614;28;20058;-70
2022/11/30 03:44:18;;;;;;;7.68;5.00;;;21.40;55.60;;;;;;5053881;28;20067;-70
2022/11/30 03:46:44;;;;;;;7.85;5.10;;;21.50;55.50;;;;;;5071561;28;20384;-70
2022/11/30 03:49:10;;;;;;;8.38;3.95;;;21.60;55.30;;;;;;5071446;28;20032;-69
2022/11/30 03:51:36;;;;;;;6.97;4.53;;;21.50;55.10;;;;;;5071190;28;20028;-69
2022/11/30 03:54:02;;;;;;;7.65;4.78;;;21.60;55.20;;;;;;5053404;28;20405;-70
2022/11/30 03:56:28;;;;;;;9.57;4.75;;;21.50;55.30;;;;;;5071321;28;20449;-70
2022/11/30 03:58:54;;;;;;;6.07;4.63;;;21.60;54.80;;;;;;5071326;28;20044;-69
2022/11/30 04:01:22;;;;;;;8.20;5.15;;;21.60;54.90;;;;;;5071229;28;20068;-68
2022/11/30 04:03:52;;;;;;;8.75;4.40;;;21.50;54.90;;;;;;5071243;28;20495;-69
2022/11/30 04:06:19;;;;;;;6.15;3.92;;;21.60;55.00;;;;;;5071252;28;20047;-70
2022/11/30 04:08:46;;;;;;;7.40;4.07;;;21.50;55.20;;;;;;5070746;28;20040;-70
2022/11/30 04:11:12;;;;;;;9.30;4.95;;;21.50;55.10;;;;;;5071329;28;20039;-70
2022/11/30 04:13:39;;;;;;;6.75;4.43;;;21.50;55.20;;;;;;5071050;28;20131;-70
2022/11/30 04:16:06;;;;;;;7.40;4.78;;;21.40;55.10;;;;;;5070995;28;20040;-70
2022/11/30 04:18:34;;;;;;;8.02;4.38;;;21.50;55.20;;;;;;5070991;28;20465;-69
2022/11/30 04:21:00;;;;;;;8.02;5.07;;;21.50;55.10;;;;;;5070905;28;20058;-70
2022/11/30 04:23:33;;;;;;;6.70;4.28;;;21.60;55.10;;;;;;5052847;28;20039;-69
2022/11/30 04:25:59;;;;;;;6.32;4.28;;;21.50;55.10;;;;;;5071143;28;20104;-70
2022/11/30 04:28:24;;;;;;;7.05;4.40;;;21.40;55.00;;;;;;5070779;28;20108;-71
2022/11/30 04:30:52;;;;;;;6.65;4.28;;;21.50;55.10;;;;;;5070846;28;20029;-70
2022/11/30 04:33:18;;;;;;;7.75;4.65;;;21.50;55.10;;;;;;5070508;28;20036;-70
2022/11/30 04:35:51;;;;;;;5.78;4.15;;;21.60;54.90;;;;;;5071125;28;20028;-70
2022/11/30 04:38:17;;;;;;;;;;;21.50;55.00;;;;;;5070713;28;20039;-69
2022/11/30 04:40:44;;;;;;;7.00;4.18;;;21.60;54.80;;;;;;5052766;28;19995;-70
2022/11/30 04:43:11;;;;;;;7.88;4.70;;;21.50;54.90;;;;;;5070731;28;20135;-70
2022/11/30 04:45:37;;;;;;;6.88;4.10;;;21.50;55.00;;;;;;5070673;28;20021;-69
2022/11/30 04:48:04;;;;;;;7.35;4.95;;;21.40;54.90;;;;;;5070473;28;20448;-69
2022/11/30 04:50:30;;;;;;;8.05;4.15;;;21.50;55.10;;;;;;5069681;28;20155;-70
2022/11/30 04:52:57;;;;;;;6.38;4.07;;;21.40;55.10;;;;;;5066954;28;20440;-70
2022/11/30 04:55:23;;;;;;;7.35;4.28;;;21.40;55.00;;;;;;5069946;28;20112;-70
2022/11/30 04:57:49;;;;;;;5.80;3.88;;;21.20;55.10;;;;;;5069777;28;20032;-69
2022/11/30 05:00:16;;;;;;;6.97;3.85;;;21.20;55.10;;;;;;5069836;28;20481;-70
2022/11/30 05:02:43;;;;;;;5.90;3.90;;;21.10;55.20;;;;;;5070053;28;20093;-70
2022/11/30 05:05:09;;;;;;;5.00;4.03;;;21.20;55.10;;;;;;5051808;28;20070;-70
2022/11/30 05:07:35;;;;;;;5.60;4.32;;;21.20;55.10;;;;;;5070162;28;20068;-70
2022/11/30 05:10:02;;;;;;;5.55;4.18;;;21.20;55.10;;;;;;5069815;28;20045;-69
2022/11/30 05:12:29;;;;;;;5.78;3.90;;;21.30;55.60;;;;;;5053601;28;20074;-70
2022/11/30 05:14:55;;;;;;;5.45;3.65;;;21.30;55.40;;;;;;5032329;28;20032;-69
2022/11/30 05:17:20;;;;;;;7.97;3.85;;;21.20;55.20;;;;;;5032369;28;20044;-72
2022/11/30 05:19:46;;;;;;;5.43;3.67;;;21.40;55.30;;;;;;5050393;28;20028;-71
2022/11/30 05:22:12;;;;;;;8.23;4.50;;;21.40;55.80;;;;;;5032565;28;20040;-71
2022/11/30 05:24:38;;;;;;;5.25;3.63;;;21.20;56.30;;;;;;5050301;28;20447;-72
2022/11/30 05:27:05;;;;;;;5.53;3.53;;;21.30;57.10;;;;;;5050365;28;20115;-71
2022/11/30 05:29:31;;;;;;;5.30;3.55;;;21.40;57.60;;;;;;5049996;28;20033;-72
2022/11/30 05:31:57;;;;;;;6.22;3.85;;;21.50;57.50;;;;;;5050210;28;20117;-67
2022/11/30 05:34:23;;;;;;;8.75;5.13;;;21.70;58.30;;;;;;5032197;28;20449;-65
2022/11/30 05:36:49;;;;;;;8.00;5.00;;;22.00;62.50;;;;;;5050071;28;20563;-66
2022/11/30 05:39:15;;;;;;;5.05;4.03;;;22.40;63.90;;;;;;5050191;28;20052;-72
2022/11/30 05:41:41;;;;;;;4.25;3.47;;;22.60;62.70;;;;;;5050320;28;20041;-73
2022/11/30 05:44:07;;;;;;;4.93;3.28;;;22.60;57.60;;;;;;5049910;28;20099;-73
2022/11/30 05:46:33;;;;;;;4.85;4.13;;;22.60;55.90;;;;;;5049941;28;20033;-72
2022/11/30 05:48:59;;;;;;;6.80;3.88;;;22.60;55.20;;;;;;5050474;28;20313;-72
2022/11/30 05:51:25;;;;;;;6.10;4.18;;;22.60;54.20;;;;;;5053405;28;20029;-72
2022/11/30 05:53:51;;;;;;;5.00;3.92;;;22.50;53.00;;;;;;5053524;28;20099;-73
2022/11/30 05:56:19;;;;;;;5.30;4.20;;;22.50;51.90;;;;;;5053339;28;20031;-74
2022/11/30 05:58:46;;;;;;;6.05;4.25;;;22.60;50.60;;;;;;5053459;28;20458;-73
2022/11/30 06:01:20;;;;;;;7.60;4.70;;;22.50;48.70;;;;;;5053135;28;20037;-73
2022/11/30 06:03:46;;;;;;;7.13;4.72;;;22.50;47.70;;;;;;5053624;28;20037;-74
2022/11/30 06:06:12;;;;;;;7.93;4.80;;;22.50;46.80;;;;;;5053573;28;20121;-71
2022/11/30 06:08:38;;;;;;;8.75;5.50;;;22.60;47.00;;;;;;5053177;28;20576;-72
2022/11/30 06:11:04;;;;;;;7.03;5.00;;;22.40;48.20;;;;;;5053284;28;20033;-70
2022/11/30 06:13:31;;;;;;;7.00;5.40;;;22.20;49.40;;;;;;5053258;28;20068;-70
2022/11/30 06:15:59;;;;;;;7.43;4.32;;;22.10;51.10;;;;;;5053326;28;20052;-70
2022/11/30 06:18:25;;;;;;;8.02;5.88;;;22.20;52.00;;;;;;5053426;28;20048;-71
2022/11/30 06:20:51;;;;;;;6.20;4.68;;;22.20;51.70;;;;;;5053208;28;20091;-70
2022/11/30 06:23:17;;;;;;;3.78;3.10;;;22.20;44.70;;;;;;5053096;28;20658;-72
2022/11/30 06:25:43;;;;;;;6.95;5.00;;;22.20;43.60;;;;;;5052848;28;20125;-69
2022/11/30 06:28:09;;;;;;;4.80;3.85;;;22.20;43.70;;;;;;5053015;28;20040;-69
2022/11/30 06:30:36;;;;;;;5.75;4.60;;;22.30;44.50;;;;;;5035201;28;20056;-69
2022/11/30 06:33:02;;;;;;;4.75;3.88;;;22.30;44.50;;;;;;5052504;28;20478;-68
2022/11/30 06:35:28;;;;;;;6.97;5.25;;;22.30;44.00;;;;;;5052415;28;20531;-69
2022/11/30 06:37:56;;;;;;;7.45;4.90;;;22.30;44.40;;;;;;5003564;28;20049;-69
2022/11/30 06:40:22;;;;;;;6.25;4.18;;;22.30;44.90;;;;;;5060668;28;20086;-69
2022/11/30 06:42:48;;;;;;;8.05;5.25;;;22.30;46.10;;;;;;5055281;28;20432;-69
2022/11/30 06:45:14;;;;;;;6.43;4.40;;;22.30;43.50;;;;;;5052860;28;20529;-71
2022/11/30 06:47:40;;;;;;;7.40;4.57;;;22.20;42.60;;;;;;5052703;28;20032;-71
2022/11/30 06:50:07;;;;;;;7.53;4.82;;;22.10;43.80;;;;;;5052413;28;20043;-74
2022/11/30 06:52:33;;;;;;;7.57;4.75;;;22.30;44.00;;;;;;5052513;28;20039;-74
2022/11/30 06:54:59;;;;;;;6.53;4.18;;;22.10;43.50;;;;;;5052048;28;20087;-72
2022/11/30 06:57:29;;;;;;;4.82;4.25;;;22.20;45.50;;;;;;5052658;28;20025;-71
2022/11/30 06:59:56;;;;;;;6.55;4.72;;;22.30;45.90;;;;;;5062213;28;20032;-71
2022/11/30 07:02:22;;;;;;;8.20;5.63;;;22.40;43.00;;;;;;5060282;28;20037;-70
2022/11/30 07:04:48;;;;;;;6.03;5.40;;;22.30;45.30;;;;;;5057737;28;20035;-73
2022/11/30 07:07:15;;;;;;;8.52;5.00;;;22.30;44.00;;;;;;5072304;28;20045;-75
2022/11/30 07:09:41;;;;;;;5.22;4.47;;;22.50;45.80;;;;;;5055315;28;20139;-72
2022/11/30 07:12:07;;;;;;;7.35;5.82;;;22.60;46.40;;;;;;5054504;28;20099;-70
2022/11/30 07:14:34;;;;;;;4.35;3.50;;;22.70;46.50;;;;;;5052366;28;20131;-72
2022/11/30 07:17:03;;;;;;;8.02;4.72;;;22.60;44.60;;;;;;5052255;28;20500;-73
2022/11/30 07:19:30;;;;;;;7.28;5.53;;;22.80;55.00;;;;;;5051996;28;20493;-75
2022/11/30 07:21:56;;;;;;;6.78;5.25;;;22.70;56.10;;;;;;5069339;28;20551;-72
2022/11/30 07:27:06;;;;;;;8.13;5.35;;;22.60;56.90;;;;;;5072190;28;20081;-71
2022/11/30 07:29:32;;;;;;;6.75;5.10;;;22.50;56.50;;;;;;5072012;28;20025;-71
2022/11/30 07:31:58;;;;;;;9.07;5.80;;;22.20;57.50;;;;;;5071994;28;20539;-74
2022/11/30 07:34:25;;;;;;;8.68;6.07;;;22.20;57.90;;;;;;5071708;28;20350;-72
2022/11/30 07:36:51;;;;;;;8.93;6.55;;;22.10;57.80;;;;;;5053785;28;20504;-73
2022/11/30 07:39:17;;;;;;;7.10;4.95;;;22.10;57.90;;;;;;5071354;28;20035;-69
2022/11/30 07:41:43;;;;;;;7.93;5.93;;;22.20;58.30;;;;;;5071663;28;20036;-74
2022/11/30 07:44:10;;;;;;;10.00;5.68;;;22.10;58.60;;;;;;5071534;28;20078;-71
2022/11/30 07:46:37;;;;;;;7.93;5.45;;;22.10;58.70;;;;;;5071570;28;20056;-70
2022/11/30 07:49:05;;;;;;;9.65;5.82;;;22.00;58.50;;;;;;5071272;28;20028;-70
2022/11/30 07:51:32;;;;;;;7.18;5.40;;;22.00;58.50;;;;;;5071357;28;20037;-70
2022/11/30 07:53:58;;;;;;;7.78;4.97;;;22.00;58.80;;;;;;5071444;28;20032;-72
2022/11/30 07:56:26;;;;;;;7.63;5.15;;;21.90;58.80;;;;;;5070864;28;20112;-72
2022/11/30 07:58:58;;;;;;;6.32;4.55;;;22.00;58.80;;;;;;5051269;28;20035;-74
2022/11/30 08:01:26;;;;;;;5.90;4.43;;;22.00;58.90;;;;;;5051248;28;20515;-74
2022/11/30 08:03:53;;;;;;;5.07;2.92;;;21.90;58.90;;;;;;5050893;28;20027;-69
2022/11/30 08:06:23;;;;;;;5.25;3.35;;;22.00;59.20;;;;;;5051242;28;20086;-71
2022/11/30 08:08:52;;;;;;;5.40;3.70;;;22.10;58.80;;;;;;5051277;28;20037;-69
2022/11/30 08:11:21;;;;;;;8.23;3.67;;;22.30;58.10;;;;;;5051181;28;20033;-73
2022/11/30 08:13:47;;;;;;;7.88;3.35;;;22.50;56.50;;;;;;5049978;28;20033;-74
2022/11/30 08:16:24;;;;;;;7.07;3.22;;;22.60;55.30;;;;;;5050248;28;20481;-72
2022/11/30 08:18:50;;;;;;;9.88;4.10;;;22.60;54.60;;;;;;5047457;28;20066;-71
2022/11/30 08:21:19;;;;;;;6.72;4.13;;;22.70;54.30;;;;;;5050584;28;20090;-74
2022/11/30 08:23:47;;;;;;;6.10;4.53;;;22.70;53.80;;;;;;5050856;28;20121;-75
2022/11/30 08:26:22;;;;;;;6.97;4.50;;;22.60;53.60;;;;;;5050837;28;20478;-74
2022/11/30 08:28:49;;;;;;;7.10;3.70;;;22.80;55.00;;;;;;5050890;28;20057;-73
2022/11/30 08:31:21;;;;;;;6.63;4.25;;;22.80;56.30;;;;;;5050752;28;20036;-73
2022/11/30 08:33:47;;;;;;;2.55;0.95;;;22.80;55.30;;;;;;5050874;28;20174;-72
2022/11/30 08:36:20;;;;;;;4.88;1.30;;;22.90;55.10;;;;;;5050906;28;20123;-74
2022/11/30 08:38:47;;;;;;;1.38;0.75;;;23.00;54.60;;;;;;5032974;28;20040;-73
2022/11/30 08:41:17;;;;;;;1.63;0.82;;;23.10;54.10;;;;;;5050564;28;20037;-73
2022/11/30 08:43:44;;;;;;;5.07;3.80;;;23.30;55.30;;;;;;5051122;28;20158;-71
2022/11/30 08:46:12;;;;;;;6.00;3.60;;;23.50;53.80;;;;;;5033033;28;20390;-70
2022/11/30 08:48:38;;;;;;;6.75;3.33;;;23.20;52.20;;;;;;5051090;28;20040;-71
2022/11/30 08:51:08;;;;;;;5.15;3.75;;;23.30;51.80;;;;;;5032907;28;20123;-72
2022/11/30 08:53:34;;;;;;;5.82;3.75;;;23.40;51.40;;;;;;5050532;28;20789;-71
2022/11/30 08:56:03;;;;;;;5.30;4.00;;;23.30;50.80;;;;;;5052927;28;20111;-74
2022/11/30 08:58:31;;;;;;;6.07;3.67;;;23.30;51.80;;;;;;5068137;28;20036;-72
2022/11/30 09:01:15;;;;;;;5.78;3.63;;;23.30;51.80;;;;;;5070309;28;20451;-71
2022/11/30 09:03:43;;;;;;;7.85;3.97;;;23.30;51.60;;;;;;5052349;28;20485;-70
2022/11/30 09:06:12;;;;;;;6.43;4.35;;;23.40;51.30;;;;;;5070253;28;20504;-74
2022/11/30 09:08:39;;;;;;;5.78;4.50;;;23.20;51.20;;;;;;5070433;28;20060;-74
2022/11/30 09:11:20;;;;;;;4.82;3.65;;;23.30;51.60;;;;;;5063602;28;20429;-73
2022/11/30 09:13:47;;;;;;;5.13;4.03;;;23.30;51.60;;;;;;5050416;28;20033;-71
2022/11/30 09:16:18;;;;;;;5.20;3.53;;;23.30;51.80;;;;;;5050328;28;20099;-69
2022/11/30 09:18:46;;;;;;;4.47;3.63;;;23.30;51.80;;;;;;5050371;28;20070;-71
2022/11/30 09:21:14;;;;;;;3.92;3.53;;;23.30;52.30;;;;;;5050166;28;20040;-72
2022/11/30 09:23:41;;;;;;;5.75;4.25;;;23.20;51.90;;;;;;5032249;28;20039;-73
2022/11/30 09:26:10;;;;;;;11.48;1.20;;;23.20;53.80;;;;;;5025725;28;20075;-72
2022/11/30 09:28:37;;;;;;;6.20;4.18;;;23.30;53.10;;;;;;5071660;28;20075;-74
2022/11/30 09:31:07;;;;;;;6.30;4.47;;;23.40;46.50;;;;;;5061686;28;20068;-75
2022/11/30 09:33:33;;;;;;;10.18;5.72;;;23.40;45.00;;;;;;5073800;28;20032;-75
2022/11/30 09:36:02;;;;;;;10.60;4.88;;;23.20;43.90;;;;;;5074211;28;20064;-74
2022/11/30 09:38:28;;;;;;;5.93;4.57;;;23.30;45.20;;;;;;5058953;28;20045;-76
2022/11/30 09:41:00;;;;;;;6.93;4.70;;;23.30;44.00;;;;;;5034753;28;20049;-74
2022/11/30 09:43:59;;;;;;;7.20;5.32;;;23.20;49.30;;;;;;5053902;28;20466;-74
2022/11/30 09:46:35;;;;;;;5.78;4.45;;;23.20;51.40;;;;;;5064349;28;20054;-75
2022/11/30 09:49:08;;;;;;;7.82;5.10;;;23.20;51.20;;;;;;5073781;28;20036;-75
2022/11/30 09:51:53;;;;;;;8.18;5.00;;;23.20;51.60;;;;;;5021557;28;20450;-73
2022/11/30 09:54:35;;;;;;;7.97;5.97;;;22.90;52.20;;;;;;5073507;28;20101;-73
2022/11/30 09:57:26;;;;;;;8.00;5.22;;;23.00;47.40;;;;;;5068050;28;20029;-69
2022/11/30 10:00:11;;;;;;;8.38;5.20;;;22.90;46.10;;;;;;4914681;29;20138;-71
2022/11/30 10:02:41;;;;;;;6.53;4.10;;;23.20;47.40;;;;;;4917880;29;20063;-70
2022/11/30 10:05:14;;;;;;;4.60;3.72;;;23.20;46.40;;;;;;4914404;29;20512;-69
2022/11/30 10:08:06;;;;;;;5.68;4.18;;;23.40;45.30;;;;;;4921903;29;20051;-70
2022/11/30 10:10:42;;;;;;;5.32;4.28;;;23.40;44.60;;;;;;4965119;28;20051;-70
2022/11/30 10:13:10;;;;;;;6.45;4.35;;;23.40;43.90;;;;;;4971918;28;20137;-71
2022/11/30 10:15:53;;;;;;;4.80;4.10;;;23.40;42.90;;;;;;4955923;28;20086;-70
2022/11/30 10:18:40;;;;;;;6.47;4.43;;;23.50;42.20;;;;;;4971859;28;20408;-69
2022/11/30 10:21:18;;;;;;;7.57;5.20;;;23.40;43.10;;;;;;4971651;28;20058;-70
2022/11/30 10:23:47;;;;;;;6.15;3.95;;;23.30;42.90;;;;;;4971655;28;20055;-72
2022/11/30 10:26:24;;;;;;;5.65;4.72;;;23.30;43.40;;;;;;4971928;28;20039;-70
2022/11/30 10:28:53;;;;;;;4.88;4.10;;;23.30;44.50;;;;;;4971861;28;20125;-70
2022/11/30 10:31:40;;;;;;;5.10;3.40;;;23.30;43.20;;;;;;4984754;28;20046;-72
2022/11/30 10:34:21;;;;;;;3.30;3.00;;;23.30;40.00;;;;;;4974787;28;20046;-71
2022/11/30 10:37:00;;;;;;;5.53;3.53;;;23.30;38.50;;;;;;5028949;28;20060;-70
2022/11/30 10:39:37;;;;;;;5.70;4.45;;;23.30;40.10;;;;;;5072423;28;20036;-72
2022/11/30 10:42:10;;;;;;;24.95;7.88;;;23.20;46.90;;;;;;5071926;28;20081;-70
2022/11/30 10:44:45;;;;;;;9.03;4.70;;;23.50;51.80;;;;;;5072013;28;20078;-72
2022/11/30 10:47:27;;;;;;;4.38;3.38;;;23.70;47.20;;;;;;5080464;28;20032;-72
2022/11/30 10:49:53;;;;;;;9.27;6.10;;;23.60;42.60;;;;;;5072803;28;20064;-74
2022/11/30 10:52:27;;;;;;;6.43;4.13;;;23.60;42.30;;;;;;5092663;28;20425;-72
2022/11/30 10:54:55;;;;;;;6.03;3.55;;;23.50;41.80;;;;;;5092784;28;20028;-74
2022/11/30 10:57:27;;;;;;;5.25;3.10;;;23.50;43.50;;;;;;5092766;28;20081;-74
2022/11/30 10:59:55;;;;;;;5.60;3.80;;;23.40;39.20;;;;;;5092646;28;20115;-76
2022/11/30 11:03:00;;;;;;;6.57;4.13;;;23.50;41.70;;;;;;5092854;28;20107;-74
2022/11/30 11:05:29;;;;;;;6.78;4.60;;;23.50;42.70;;;;;;5010036;28;20443;-74
2022/11/30 11:08:23;;;;;;;5.82;3.20;;;23.60;47.50;;;;;;5009886;28;20080;-72
2022/11/30 11:10:50;;;;;;;3.40;2.90;;;23.50;44.20;;;;;;5008758;28;20057;-72
2022/11/30 11:13:37;;;;;;;5.07;3.78;;;23.50;40.40;;;;;;4993170;28;20719;-72
2022/11/30 11:16:06;;;;;;;6.00;3.47;;;23.30;42.30;;;;;;5009737;28;20141;-71
2022/11/30 11:18:34;;;;;;;5.65;4.20;;;23.40;50.80;;;;;;5009884;28;20033;-72
2022/11/30 11:21:10;;;;;;;5.47;4.15;;;23.50;51.00;;;;;;5009445;28;20061;-71
2022/11/30 11:23:41;;;;;;;6.65;4.40;;;23.40;51.00;;;;;;5009503;28;20049;-74
2022/11/30 11:26:27;;;;;;;6.38;4.65;;;23.30;51.50;;;;;;5009813;28;20087;-75
2022/11/30 11:28:58;;;;;;;8.75;5.97;;;23.30;51.70;;;;;;5008969;28;20042;-71
2022/11/30 11:31:46;;;;;;;7.53;5.07;;;23.20;52.20;;;;;;5008340;28;20033;-73
2022/11/30 11:34:32;;;;;;;9.23;5.57;;;23.00;52.50;;;;;;5008558;28;20100;-72
2022/11/30 11:37:28;;;;;;;7.20;5.38;;;23.10;52.90;;;;;;5070982;28;20047;-71
2022/11/30 11:40:12;;;;;;;7.95;5.35;;;22.90;53.10;;;;;;5052353;28;20045;-70
2022/11/30 11:42:48;;;;;;;7.80;4.68;;;22.80;53.60;;;;;;5071331;28;20040;-72
2022/11/30 11:45:18;;;;;;;6.40;5.15;;;22.90;54.20;;;;;;5071516;28;20116;-71
2022/11/30 11:47:45;;;;;;;7.57;5.72;;;22.90;54.50;;;;;;5071533;28;20369;-70
2022/11/30 11:50:11;;;;;;;6.45;4.88;;;22.80;54.50;;;;;;5071444;28;20044;-70
2022/11/30 11:52:37;;;;;;;10.02;5.10;;;22.80;54.80;;;;;;5071254;28;20037;-72
2022/11/30 11:55:15;;;;;;;7.65;5.10;;;22.70;54.80;;;;;;5071044;28;20507;-72
2022/11/30 11:57:49;;;;;;;7.07;5.25;;;22.60;54.80;;;;;;5071456;28;20028;-70
2022/11/30 12:00:20;;;;;;;7.47;4.75;;;22.70;55.00;;;;;;5069863;28;20037;-71
2022/11/30 12:02:58;;;;;;;7.22;5.20;;;22.60;55.00;;;;;;5071157;28;20033;-70
2022/11/30 12:05:48;;;;;;;7.20;4.78;;;22.60;55.10;;;;;;5070947;28;20039;-71
2022/11/30 12:08:36;;;;;;;5.72;4.72;;;22.60;55.40;;;;;;5071080;28;20044;-71
2022/11/30 12:11:30;;;;;;;6.85;4.95;;;22.60;55.40;;;;;;5070809;28;20044;-74
2022/11/30 12:13:56;;;;;;;6.57;4.05;;;22.70;55.70;;;;;;5071218;28;20071;-72
2022/11/30 12:16:39;;;;;;;4.57;3.72;;;22.60;55.70;;;;;;5071108;28;20067;-69
2022/11/30 12:19:19;;;;;;;5.68;4.15;;;22.70;55.70;;;;;;5070590;28;20040;-69
2022/11/30 12:21:57;;;;;;;7.35;5.47;;;22.60;55.50;;;;;;5070389;28;20473;-72
2022/11/30 12:24:32;;;;;;;7.65;5.18;;;22.60;55.60;;;;;;5070756;28;20100;-72
2022/11/30 12:27:22;;;;;;;7.25;5.13;;;22.50;55.90;;;;;;5070601;28;20024;-69
2022/11/30 12:30:02;;;;;;;7.03;4.57;;;22.50;55.90;;;;;;5071136;28;20032;-72
2022/11/30 12:32:51;;;;;;;7.90;5.10;;;22.50;56.00;;;;;;5018687;28;20735;-72
2022/11/30 12:35:32;;;;;;;8.73;5.10;;;22.50;56.10;;;;;;5070750;28;20040;-72
2022/11/30 12:38:22;;;;;;;7.32;4.70;;;22.50;56.20;;;;;;5070122;28;20029;-71
2022/11/30 12:40:54;;;;;;;10.52;6.00;;;22.60;57.00;;;;;;5069977;28;20039;-72
2022/11/30 12:43:20;;;;;;;9.50;5.40;;;22.50;58.50;;;;;;5070049;28;20573;-71
2022/11/30 12:45:47;;;;;;;7.68;5.15;;;22.60;59.80;;;;;;5070246;28;20144;-69
2022/11/30 12:48:16;;;;;;;6.90;4.82;;;22.40;58.90;;;;;;5070547;28;20119;-70
2022/11/30 12:51:04;;;;;;;7.05;4.90;;;22.60;58.40;;;;;;5070712;28;20538;-70
2022/11/30 12:53:33;;;;;;;5.95;4.93;;;22.50;57.70;;;;;;5085127;28;20105;-70
2022/11/30 12:56:09;;;;;;;7.82;5.38;;;22.60;57.30;;;;;;5073476;28;20440;-70
2022/11/30 12:58:41;;;;;;;6.78;5.07;;;22.60;57.30;;;;;;5070767;28;20117;-71
2022/11/30 13:01:13;;;;;;;8.43;4.57;;;22.50;57.10;;;;;;5072011;28;20083;-73
2022/11/30 13:03:45;;;;;;;5.10;4.00;;;22.60;57.00;;;;;;5074553;28;20024;-72